createdAt,value
2023-03-28T00:01:02.165Z,1.70
2023-03-28T00:02:06.515Z,1.70
2023-03-28T00:03:10.734Z,1.70
2023-03-28T00:04:14.889Z,1.69
2023-03-28T00:05:19.035Z,1.68
2023-03-28T00:06:23.072Z,1.70
2023-03-28T00:07:27.355Z,1.70
2023-03-28T00:08:31.489Z,1.70
2023-03-28T00:09:35.569Z,1.72
2023-03-28T00:10:39.869Z,1.73
2023-03-28T00:11:44.025Z,1.73
2023-03-28T00:12:48.067Z,1.75
2023-03-28T00:13:52.274Z,1.73
2023-03-28T00:14:56.390Z,1.69
2023-03-28T00:16:00.672Z,1.65
2023-03-28T00:17:04.644Z,1.61
2023-03-28T00:18:08.721Z,1.57
2023-03-28T00:19:12.955Z,1.52
2023-03-28T00:20:17.250Z,1.49
2023-03-28T00:21:21.326Z,1.47
2023-03-28T00:22:25.555Z,1.44
2023-03-28T00:23:29.709Z,1.41
2023-03-28T00:24:33.839Z,1.38
2023-03-28T00:25:38.046Z,1.37
2023-03-28T00:26:42.151Z,1.37
2023-03-28T00:28:00.374Z,1.36
2023-03-28T00:29:03.257Z,1.38
2023-03-28T00:30:08.267Z,1.38
2023-03-28T00:31:12.018Z,1.37
2023-03-28T00:32:16.021Z,1.37
2023-03-28T00:33:20.373Z,1.34
2023-03-28T00:34:24.472Z,1.34
2023-03-28T00:35:28.653Z,1.34
2023-03-28T00:36:32.934Z,1.33
2023-03-28T00:37:37.064Z,1.34
2023-03-28T00:38:41.065Z,1.35
2023-03-28T00:39:45.301Z,1.36
2023-03-28T00:40:49.544Z,1.35
2023-03-28T00:41:53.621Z,1.36
2023-03-28T00:42:57.845Z,1.34
2023-03-28T00:44:01.963Z,1.33
2023-03-28T00:45:06.176Z,1.34
2023-03-28T00:46:10.570Z,1.33
2023-03-28T00:47:14.383Z,1.30
2023-03-28T00:48:18.703Z,1.28
2023-03-28T00:49:22.847Z,1.29
2023-03-28T00:50:27.001Z,1.26
2023-03-28T00:51:31.241Z,1.25
2023-03-28T00:52:35.315Z,1.24
2023-03-28T00:53:39.489Z,1.24
2023-03-28T00:54:43.756Z,1.22
2023-03-28T00:55:47.829Z,1.21
2023-03-28T00:56:52.293Z,1.19
2023-03-28T00:57:56.170Z,1.17
2023-03-28T00:59:00.344Z,1.15
2023-03-28T01:00:04.402Z,1.12
2023-03-28T01:01:08.776Z,1.09
2023-03-28T01:02:12.996Z,1.05
2023-03-28T01:03:17.148Z,1.03
2023-03-28T01:04:21.213Z,1.00
2023-03-28T01:05:25.413Z,0.97
2023-03-28T01:06:29.644Z,0.93
2023-03-28T01:07:33.929Z,0.91
2023-03-28T01:08:38.116Z,0.89
2023-03-28T01:09:42.083Z,0.88
2023-03-28T01:10:46.192Z,0.87
2023-03-28T01:11:50.408Z,0.82
2023-03-28T01:12:54.567Z,0.78
2023-03-28T01:13:58.820Z,0.76
2023-03-28T01:15:02.903Z,0.74
2023-03-28T01:16:07.108Z,0.72
2023-03-28T01:17:11.233Z,0.72
2023-03-28T01:18:15.413Z,0.72
2023-03-28T01:19:19.472Z,0.70
2023-03-28T01:20:23.794Z,0.68
2023-03-28T01:21:27.885Z,0.64
2023-03-28T01:22:31.971Z,0.61
2023-03-28T01:23:36.148Z,0.60
2023-03-28T01:24:40.342Z,0.57
2023-03-28T01:25:44.394Z,0.58
2023-03-28T01:26:48.683Z,0.57
2023-03-28T01:27:52.926Z,0.54
2023-03-28T01:28:56.932Z,0.49
2023-03-28T01:30:01.195Z,0.46
2023-03-28T01:31:05.324Z,0.44
2023-03-28T01:32:09.487Z,0.43
2023-03-28T01:33:13.717Z,0.42
2023-03-28T01:34:17.715Z,0.41
2023-03-28T01:35:21.914Z,0.40
2023-03-28T01:36:34.638Z,0.40
2023-03-28T01:37:30.377Z,0.41
2023-03-28T01:38:34.465Z,0.43
2023-03-28T01:39:38.808Z,0.46
2023-03-28T01:40:42.844Z,0.47
2023-03-28T01:41:47.012Z,0.48
2023-03-28T01:42:51.199Z,0.47
2023-03-28T01:43:55.383Z,0.48
2023-03-28T01:45:02.578Z,0.48
2023-03-28T01:46:05.704Z,0.49
2023-03-28T01:47:09.780Z,0.51
2023-03-28T01:48:14.058Z,0.56
2023-03-28T01:49:18.068Z,0.61
2023-03-28T01:50:22.324Z,0.63
2023-03-28T01:51:26.460Z,0.63
2023-03-28T01:52:30.720Z,0.64
2023-03-28T01:53:34.887Z,0.66
2023-03-28T01:54:38.955Z,0.66
2023-03-28T01:55:43.190Z,0.66
2023-03-28T01:56:47.468Z,0.66
2023-03-28T01:57:51.566Z,0.68
2023-03-28T01:58:55.592Z,0.71
2023-03-28T01:59:59.841Z,0.74
2023-03-28T02:01:04.093Z,0.75
2023-03-28T02:02:08.197Z,0.77
2023-03-28T02:03:12.605Z,0.79
2023-03-28T02:04:20.813Z,0.80
2023-03-28T02:05:20.925Z,0.80
2023-03-28T02:06:24.892Z,0.78
2023-03-28T02:07:29.234Z,0.80
2023-03-28T02:08:33.475Z,0.77
2023-03-28T02:09:37.686Z,0.78
2023-03-28T02:10:41.737Z,0.77
2023-03-28T02:11:45.925Z,0.75
2023-03-28T02:12:50.048Z,0.75
2023-03-28T02:13:54.158Z,0.70
2023-03-28T02:14:58.575Z,0.69
2023-03-28T02:16:02.954Z,0.68
2023-03-28T02:17:06.872Z,0.67
2023-03-28T02:18:11.171Z,0.67
2023-03-28T02:19:15.380Z,0.68
2023-03-28T02:20:19.403Z,0.68
2023-03-28T02:21:23.626Z,0.66
2023-03-28T02:22:27.856Z,0.63
2023-03-28T02:23:32.013Z,0.61
2023-03-28T02:24:36.187Z,0.59
2023-03-28T02:25:40.469Z,0.60
2023-03-28T02:26:44.495Z,0.61
2023-03-28T02:27:48.557Z,0.62
2023-03-28T02:28:52.833Z,0.63
2023-03-28T02:29:57.084Z,0.66
2023-03-28T02:31:01.185Z,0.68
2023-03-28T02:32:05.294Z,0.69
2023-03-28T02:33:09.457Z,0.70
2023-03-28T02:34:13.601Z,0.69
2023-03-28T02:35:17.806Z,0.64
2023-03-28T02:36:21.980Z,0.59
2023-03-28T02:37:26.119Z,0.56
2023-03-28T02:38:30.295Z,0.52
2023-03-28T02:39:34.312Z,0.47
2023-03-28T02:40:38.505Z,0.44
2023-03-28T02:41:42.549Z,0.41
2023-03-28T02:42:46.697Z,0.39
2023-03-28T02:43:50.923Z,0.40
2023-03-28T02:44:55.081Z,0.38
2023-03-28T02:45:59.593Z,0.39
2023-03-28T02:47:03.316Z,0.40
2023-03-28T02:48:07.547Z,0.40
2023-03-28T02:49:11.781Z,0.43
2023-03-28T02:50:15.970Z,0.44
2023-03-28T02:51:20.066Z,0.46
2023-03-28T02:52:24.265Z,0.47
2023-03-28T02:53:29.305Z,0.49
2023-03-28T02:54:33.107Z,0.48
2023-03-28T02:55:37.292Z,0.49
2023-03-28T02:56:41.503Z,0.51
2023-03-28T02:57:46.520Z,0.51
2023-03-28T02:58:50.365Z,0.54
2023-03-28T02:59:54.575Z,0.53
2023-03-28T03:00:58.709Z,0.55
2023-03-28T03:02:02.793Z,0.55
2023-03-28T03:03:07.091Z,0.56
2023-03-28T03:04:11.260Z,0.56
2023-03-28T03:05:15.261Z,0.58
2023-03-28T03:06:19.609Z,0.60
2023-03-28T03:07:23.774Z,0.61
2023-03-28T03:08:27.782Z,0.64
2023-03-28T03:09:32.183Z,0.64
2023-03-28T03:10:36.269Z,0.64
2023-03-28T03:11:40.468Z,0.64
2023-03-28T03:12:44.601Z,0.65
2023-03-28T03:13:48.751Z,0.65
2023-03-28T03:14:53.025Z,0.66
2023-03-28T03:15:57.275Z,0.67
2023-03-28T03:17:01.353Z,0.69
2023-03-28T03:18:05.610Z,0.70
2023-03-28T03:19:09.728Z,0.72
2023-03-28T03:20:14.013Z,0.72
2023-03-28T03:21:18.025Z,0.72
2023-03-28T03:22:22.139Z,0.70
2023-03-28T03:23:26.567Z,0.69
2023-03-28T03:24:30.740Z,0.66
2023-03-28T03:25:34.828Z,0.65
2023-03-28T03:26:39.114Z,0.64
2023-03-28T03:27:43.156Z,0.62
2023-03-28T03:28:47.419Z,0.60
2023-03-28T03:29:51.622Z,0.59
2023-03-28T03:30:55.895Z,0.58
2023-03-28T03:32:00.872Z,0.56
2023-03-28T03:33:04.813Z,0.53
2023-03-28T03:34:08.825Z,0.52
2023-03-28T03:35:13.076Z,0.52
2023-03-28T03:36:17.280Z,0.52
2023-03-28T03:37:21.494Z,0.51
2023-03-28T03:38:25.671Z,0.48
2023-03-28T03:39:29.941Z,0.44
2023-03-28T03:40:34.438Z,0.42
2023-03-28T03:41:38.448Z,0.44
2023-03-28T03:42:42.595Z,0.43
2023-03-28T03:43:47.320Z,0.43
2023-03-28T03:44:50.933Z,0.42
2023-03-28T03:45:55.046Z,0.43
2023-03-28T03:46:59.324Z,0.39
2023-03-28T03:48:03.502Z,0.35
2023-03-28T03:49:07.704Z,0.33
2023-03-28T03:50:11.786Z,0.31
2023-03-28T03:51:15.873Z,0.28
2023-03-28T03:52:20.081Z,0.26
2023-03-28T03:53:24.253Z,0.24
2023-03-28T03:54:28.373Z,0.24
2023-03-28T03:55:32.489Z,0.24
2023-03-28T03:56:36.678Z,0.24
2023-03-28T03:57:40.662Z,0.24
2023-03-28T03:58:44.868Z,0.20
2023-03-28T03:59:49.038Z,0.22
2023-03-28T04:00:53.082Z,0.22
2023-03-28T04:02:00.428Z,0.22
2023-03-28T04:03:03.581Z,0.20
2023-03-28T04:04:07.858Z,0.16
2023-03-28T04:05:12.039Z,0.14
2023-03-28T04:06:16.162Z,0.11
2023-03-28T04:07:20.326Z,0.09
2023-03-28T04:08:24.479Z,0.06
2023-03-28T04:09:28.739Z,0.06
2023-03-28T04:10:32.871Z,0.05
2023-03-28T04:11:36.940Z,0.05
2023-03-28T04:12:41.231Z,0.07
2023-03-28T04:13:45.330Z,0.08
2023-03-28T04:14:49.534Z,0.08
2023-03-28T04:15:53.589Z,0.06
2023-03-28T04:16:57.708Z,0.05
2023-03-28T04:18:04.848Z,0.01
2023-03-28T04:19:06.180Z,0.03
2023-03-28T04:20:10.287Z,0.02
2023-03-28T04:21:15.421Z,0.01
2023-03-28T04:22:19.144Z,0.00
2023-03-28T04:23:23.442Z,-0.02
2023-03-28T04:24:27.554Z,-0.05
2023-03-28T04:25:31.710Z,-0.06
2023-03-28T04:26:36.012Z,-0.05
2023-03-28T04:27:40.127Z,-0.02
2023-03-28T04:28:44.259Z,-0.01
2023-03-28T04:29:48.405Z,-0.01
2023-03-28T04:30:52.591Z,-0.01
2023-03-28T04:31:57.026Z,-0.03
2023-03-28T04:33:01.247Z,-0.06
2023-03-28T04:34:05.210Z,-0.07
2023-03-28T04:35:09.537Z,-0.08
2023-03-28T04:36:13.675Z,-0.04
2023-03-28T04:37:17.883Z,-0.02
2023-03-28T04:38:21.988Z,-0.02
2023-03-28T04:39:26.304Z,-0.01
2023-03-28T04:40:30.366Z,0.00
2023-03-28T04:41:34.571Z,0.04
2023-03-28T04:42:38.656Z,0.03
2023-03-28T04:43:42.851Z,0.01
2023-03-28T04:44:46.997Z,0.01
2023-03-28T04:45:51.203Z,-0.01
2023-03-28T04:46:55.324Z,0.00
2023-03-28T04:48:02.616Z,0.00
2023-03-28T04:49:05.617Z,-0.03
2023-03-28T04:50:09.882Z,-0.05
2023-03-28T04:51:13.926Z,-0.04
2023-03-28T04:52:18.022Z,-0.01
2023-03-28T04:53:22.149Z,-0.02
2023-03-28T04:54:26.490Z,-0.03
2023-03-28T04:55:30.627Z,-0.06
2023-03-28T04:56:34.803Z,-0.08
2023-03-28T04:57:39.025Z,-0.09
2023-03-28T04:58:43.317Z,-0.11
2023-03-28T04:59:47.400Z,-0.13
2023-03-28T05:00:51.523Z,-0.12
2023-03-28T05:01:55.634Z,-0.12
2023-03-28T05:02:59.847Z,-0.15
2023-03-28T05:04:03.913Z,-0.18
2023-03-28T05:05:08.038Z,-0.19
2023-03-28T05:06:12.124Z,-0.19
2023-03-28T05:07:16.359Z,-0.18
2023-03-28T05:08:26.846Z,-0.20
2023-03-28T05:09:29.690Z,-0.20
2023-03-28T05:10:33.859Z,-0.17
2023-03-28T05:11:37.835Z,-0.13
2023-03-28T05:12:42.017Z,-0.13
2023-03-28T05:13:46.064Z,-0.14
2023-03-28T05:14:50.352Z,-0.13
2023-03-28T05:15:54.873Z,-0.14
2023-03-28T05:16:58.732Z,-0.12
2023-03-28T05:18:02.848Z,-0.10
2023-03-28T05:19:07.164Z,-0.07
2023-03-28T05:20:11.378Z,-0.04
2023-03-28T05:21:15.433Z,-0.04
2023-03-28T05:22:19.582Z,-0.03
2023-03-28T05:23:23.718Z,-0.01
2023-03-28T05:24:27.853Z,0.03
2023-03-28T05:25:32.143Z,0.08
2023-03-28T05:26:36.470Z,0.08
2023-03-28T05:27:40.400Z,0.09
2023-03-28T05:28:44.638Z,0.11
2023-03-28T05:29:48.746Z,0.15
2023-03-28T05:30:52.886Z,0.17
2023-03-28T05:31:57.171Z,0.20
2023-03-28T05:33:01.259Z,0.22
2023-03-28T05:34:05.274Z,0.26
2023-03-28T05:35:09.618Z,0.26
2023-03-28T05:36:13.846Z,0.25
2023-03-28T05:37:32.098Z,0.24
2023-03-28T05:38:35.139Z,0.25
2023-03-28T05:39:39.376Z,0.24
2023-03-28T05:40:43.455Z,0.20
2023-03-28T05:41:47.713Z,0.17
2023-03-28T05:42:51.797Z,0.17
2023-03-28T05:43:55.916Z,0.17
2023-03-28T05:45:00.196Z,0.12
2023-03-28T05:46:04.446Z,0.09
2023-03-28T05:47:08.601Z,0.04
2023-03-28T05:48:12.834Z,0.01
2023-03-28T05:49:17.032Z,-0.01
2023-03-28T05:50:21.014Z,-0.05
2023-03-28T05:51:25.452Z,-0.09
2023-03-28T05:52:29.648Z,-0.12
2023-03-28T05:53:33.812Z,-0.14
2023-03-28T05:54:38.095Z,-0.13
2023-03-28T05:55:42.125Z,-0.14
2023-03-28T05:56:46.266Z,-0.14
2023-03-28T05:57:50.557Z,-0.13
2023-03-28T05:58:54.690Z,-0.12
2023-03-28T05:59:58.746Z,-0.10
2023-03-28T06:01:02.983Z,-0.09
2023-03-28T06:02:07.218Z,-0.07
2023-03-28T06:03:16.325Z,-0.04
2023-03-28T06:04:15.670Z,-0.03
2023-03-28T06:05:19.707Z,-0.01
2023-03-28T06:06:23.848Z,-0.03
2023-03-28T06:07:39.344Z,-0.04
2023-03-28T06:08:32.206Z,-0.02
2023-03-28T06:09:36.342Z,-0.04
2023-03-28T06:10:40.446Z,-0.05
2023-03-28T06:11:44.630Z,-0.07
2023-03-28T06:12:48.886Z,-0.09
2023-03-28T06:13:52.941Z,-0.11
2023-03-28T06:14:57.133Z,-0.11
2023-03-28T06:16:01.425Z,-0.09
2023-03-28T06:17:05.593Z,-0.05
2023-03-28T06:18:09.823Z,-0.05
2023-03-28T06:19:18.397Z,-0.09
2023-03-28T06:20:17.987Z,-0.08
2023-03-28T06:21:22.232Z,0.02
2023-03-28T06:22:26.391Z,0.09
2023-03-28T06:23:30.403Z,0.21
2023-03-28T06:24:34.614Z,0.32
2023-03-28T06:25:38.704Z,0.41
2023-03-28T06:26:43.021Z,0.48
2023-03-28T06:27:48.045Z,0.50
2023-03-28T06:28:51.762Z,0.54
2023-03-28T06:29:56.025Z,0.57
2023-03-28T06:31:00.472Z,0.61
2023-03-28T06:32:04.356Z,0.64
2023-03-28T06:33:09.457Z,0.71
2023-03-28T06:34:13.246Z,0.80
2023-03-28T06:35:17.353Z,0.86
2023-03-28T06:36:21.589Z,0.81
2023-03-28T06:37:25.821Z,0.77
2023-03-28T06:38:30.027Z,0.74
2023-03-28T06:39:34.190Z,0.66
2023-03-28T06:40:38.418Z,0.63
2023-03-28T06:41:42.523Z,0.61
2023-03-28T06:42:46.705Z,0.59
2023-03-28T06:43:51.131Z,0.59
2023-03-28T06:44:55.246Z,0.55
2023-03-28T06:45:59.323Z,0.48
2023-03-28T06:47:03.497Z,0.44
2023-03-28T06:48:07.950Z,0.46
2023-03-28T06:49:11.938Z,0.49
2023-03-28T06:50:16.125Z,0.54
2023-03-28T06:51:20.331Z,0.64
2023-03-28T06:52:24.515Z,0.70
2023-03-28T06:53:28.668Z,0.74
2023-03-28T06:54:32.886Z,0.77
2023-03-28T06:55:37.045Z,0.82
2023-03-28T06:56:41.319Z,0.88
2023-03-28T06:57:45.315Z,0.94
2023-03-28T06:58:49.609Z,0.98
2023-03-28T06:59:53.831Z,1.02
2023-03-28T07:00:58.283Z,1.06
2023-03-28T07:02:02.379Z,1.09
2023-03-28T07:03:06.500Z,1.11
2023-03-28T07:04:10.632Z,1.10
2023-03-28T07:05:14.799Z,1.10
2023-03-28T07:06:18.978Z,1.11
2023-03-28T07:07:23.363Z,1.15
2023-03-28T07:08:27.558Z,1.19
2023-03-28T07:09:31.638Z,1.19
2023-03-28T07:10:35.882Z,1.19
2023-03-28T07:11:40.259Z,1.21
2023-03-28T07:12:44.362Z,1.23
2023-03-28T07:13:48.568Z,1.24
2023-03-28T07:14:52.802Z,1.24
2023-03-28T07:15:56.848Z,1.25
2023-03-28T07:17:01.146Z,1.26
2023-03-28T07:18:05.301Z,1.29
2023-03-28T07:19:09.420Z,1.33
2023-03-28T07:20:13.647Z,1.32
2023-03-28T07:21:17.898Z,1.31
2023-03-28T07:22:22.000Z,1.29
2023-03-28T07:23:26.258Z,1.30
2023-03-28T07:24:30.283Z,1.31
2023-03-28T07:25:34.611Z,1.33
2023-03-28T07:26:38.752Z,1.35
2023-03-28T07:27:42.918Z,1.38
2023-03-28T07:28:47.076Z,1.42
2023-03-28T07:29:51.210Z,1.44
2023-03-28T07:30:55.386Z,1.48
2023-03-28T07:31:59.616Z,1.47
2023-03-28T07:33:14.840Z,1.43
2023-03-28T07:34:07.981Z,1.41
2023-03-28T07:35:12.135Z,1.40
2023-03-28T07:36:16.353Z,1.39
2023-03-28T07:37:20.539Z,1.37
2023-03-28T07:38:24.782Z,1.36
2023-03-28T07:39:28.877Z,1.39
2023-03-28T07:40:33.017Z,1.46
2023-03-28T07:41:37.219Z,1.56
2023-03-28T07:42:55.395Z,1.66
2023-03-28T07:43:59.516Z,1.72
2023-03-28T07:45:03.320Z,1.74
2023-03-28T07:46:07.442Z,1.75
2023-03-28T07:47:25.767Z,1.71
2023-03-28T07:48:28.680Z,1.67
2023-03-28T07:49:32.802Z,1.56
2023-03-28T07:50:36.981Z,1.44
2023-03-28T07:51:41.198Z,1.30
2023-03-28T07:52:45.381Z,1.19
2023-03-28T07:53:49.536Z,1.14
2023-03-28T07:54:53.771Z,1.09
2023-03-28T07:55:57.953Z,1.08
2023-03-28T07:57:02.128Z,1.10
2023-03-28T07:58:06.282Z,1.12
2023-03-28T07:59:10.449Z,1.12
2023-03-28T08:00:14.686Z,1.16
2023-03-28T08:01:18.915Z,1.20
2023-03-28T08:02:23.054Z,1.23
2023-03-28T08:03:27.109Z,1.24
2023-03-28T08:04:31.290Z,1.24
2023-03-28T08:05:35.398Z,1.22
2023-03-28T08:06:39.494Z,1.23
2023-03-28T08:07:43.951Z,1.23
2023-03-28T08:08:48.022Z,1.24
2023-03-28T08:09:52.216Z,1.27
2023-03-28T08:10:56.415Z,1.30
2023-03-28T08:12:00.611Z,1.35
2023-03-28T08:13:04.794Z,1.38
2023-03-28T08:14:09.019Z,1.42
2023-03-28T08:15:13.200Z,1.47
2023-03-28T08:16:17.458Z,1.54
2023-03-28T08:17:21.677Z,1.60
2023-03-28T08:18:25.797Z,1.60
2023-03-28T08:19:29.981Z,1.63
2023-03-28T08:20:34.107Z,1.66
2023-03-28T08:21:38.338Z,1.70
2023-03-28T08:22:42.531Z,1.70
2023-03-28T08:23:46.718Z,1.67
2023-03-28T08:24:50.889Z,1.69
2023-03-28T08:25:55.084Z,1.72
2023-03-28T08:26:59.261Z,1.76
2023-03-28T08:28:03.445Z,1.81
2023-03-28T08:29:07.725Z,1.85
2023-03-28T08:30:11.903Z,1.87
2023-03-28T08:31:16.281Z,1.90
2023-03-28T08:32:20.280Z,1.90
2023-03-28T08:33:24.453Z,1.92
2023-03-28T08:34:28.701Z,1.95
2023-03-28T08:35:32.930Z,1.91
2023-03-28T08:36:37.008Z,1.95
2023-03-28T08:39:08.107Z,1.98
2023-03-28T08:40:12.269Z,1.93
2023-03-28T08:41:16.387Z,1.92
2023-03-28T08:42:20.706Z,1.94
2023-03-28T08:43:24.905Z,1.95
2023-03-28T08:44:29.063Z,1.95
2023-03-28T08:45:33.297Z,1.93
2023-03-28T08:46:43.491Z,1.97
2023-03-28T08:47:46.088Z,1.97
2023-03-28T08:48:50.259Z,1.94
2023-03-28T08:49:54.518Z,1.89
2023-03-28T08:50:58.989Z,1.87
2023-03-28T08:52:02.926Z,1.91
2023-03-28T08:53:07.136Z,1.93
2023-03-28T08:54:11.401Z,1.91
2023-03-28T08:55:15.540Z,1.89
2023-03-28T08:56:19.695Z,1.89
2023-03-28T08:57:23.891Z,1.91
2023-03-28T08:58:28.099Z,1.96
2023-03-28T08:59:32.351Z,1.96
2023-03-28T09:00:36.541Z,1.98
2023-03-28T09:01:41.004Z,1.94
2023-03-28T09:02:45.067Z,1.97
2023-03-28T09:03:49.217Z,2.00
2023-03-28T09:04:53.553Z,2.07
2023-03-28T09:05:57.583Z,2.13
2023-03-28T09:07:01.826Z,2.16
2023-03-28T09:08:06.180Z,2.18
2023-03-28T09:09:10.239Z,2.20
2023-03-28T09:10:14.432Z,2.22
2023-03-28T09:11:18.717Z,2.22
2023-03-28T09:12:22.962Z,2.16
2023-03-28T09:13:27.119Z,2.07
2023-03-28T09:14:31.293Z,1.99
2023-03-28T09:15:35.501Z,1.88
2023-03-28T09:16:39.719Z,1.76
2023-03-28T09:17:44.056Z,1.76
2023-03-28T09:18:48.187Z,1.76
2023-03-28T09:20:06.408Z,1.70
2023-03-28T09:21:09.459Z,1.62
2023-03-28T09:22:15.948Z,1.59
2023-03-28T09:23:17.871Z,1.55
2023-03-28T09:24:22.053Z,1.49
2023-03-28T09:25:26.274Z,1.35
2023-03-28T09:26:30.466Z,1.24
2023-03-28T09:27:34.645Z,1.22
2023-03-28T09:28:38.945Z,1.25
2023-03-28T09:29:43.138Z,1.30
2023-03-28T09:30:47.424Z,1.33
2023-03-28T09:31:51.650Z,1.35
2023-03-28T09:32:55.831Z,1.42
2023-03-28T09:34:00.003Z,1.48
2023-03-28T09:35:04.297Z,1.57
2023-03-28T09:36:08.598Z,1.65
2023-03-28T09:37:12.630Z,1.71
2023-03-28T09:38:16.987Z,1.77
2023-03-28T09:39:21.092Z,1.75
2023-03-28T09:40:25.315Z,1.72
2023-03-28T09:41:29.498Z,1.76
2023-03-28T09:42:33.785Z,1.78
2023-03-28T09:43:37.937Z,1.75
2023-03-28T09:44:53.614Z,1.67
2023-03-28T09:45:46.426Z,1.62
2023-03-28T09:46:50.562Z,1.57
2023-03-28T09:47:54.932Z,1.53
2023-03-28T09:48:59.093Z,1.56
2023-03-28T09:50:12.226Z,1.59
2023-03-28T09:51:07.690Z,1.60
2023-03-28T09:52:11.831Z,1.65
2023-03-28T09:53:16.005Z,1.66
2023-03-28T09:54:20.313Z,1.64
2023-03-28T09:55:24.482Z,1.64
2023-03-28T09:56:28.767Z,1.56
2023-03-28T09:57:32.846Z,1.53
2023-03-28T09:58:37.052Z,1.53
2023-03-28T09:59:41.272Z,1.54
2023-03-28T10:00:45.535Z,1.59
2023-03-28T10:01:49.760Z,1.67
2023-03-28T10:02:53.931Z,1.79
2023-03-28T10:03:58.242Z,1.74
2023-03-28T10:05:04.757Z,1.76
2023-03-28T10:06:06.592Z,1.82
2023-03-28T10:07:10.898Z,1.77
2023-03-28T10:08:15.139Z,1.80
2023-03-28T10:09:19.365Z,1.79
2023-03-28T10:10:23.673Z,1.82
2023-03-28T10:11:27.810Z,1.87
2023-03-28T10:12:32.089Z,1.94
2023-03-28T10:13:36.267Z,1.95
2023-03-28T10:14:40.485Z,1.84
2023-03-28T10:15:44.820Z,1.79
2023-03-28T10:16:49.013Z,1.77
2023-03-28T10:17:53.256Z,1.78
2023-03-28T10:18:57.362Z,1.74
2023-03-28T10:20:01.766Z,1.71
2023-03-28T10:21:05.853Z,1.44
2023-03-28T10:22:10.086Z,1.25
2023-03-28T10:23:14.406Z,1.14
2023-03-28T10:24:18.579Z,1.12
2023-03-28T10:25:22.782Z,1.18
2023-03-28T10:26:26.991Z,1.21
2023-03-28T10:27:31.155Z,1.23
2023-03-28T10:28:35.332Z,1.14
2023-03-28T10:29:39.622Z,1.05
2023-03-28T10:30:43.817Z,1.05
2023-03-28T10:31:48.026Z,1.11
2023-03-28T10:32:52.198Z,1.21
2023-03-28T10:33:56.368Z,1.35
2023-03-28T10:35:00.537Z,1.41
2023-03-28T10:36:04.809Z,1.46
2023-03-28T10:37:08.883Z,1.36
2023-03-28T10:38:13.169Z,1.29
2023-03-28T10:39:17.436Z,1.26
2023-03-28T10:40:21.590Z,1.17
2023-03-28T10:41:26.202Z,1.16
2023-03-28T10:42:30.023Z,1.16
2023-03-28T10:43:34.231Z,1.25
2023-03-28T10:44:38.404Z,1.28
2023-03-28T10:45:42.547Z,1.19
2023-03-28T10:46:46.822Z,1.11
2023-03-28T10:47:51.029Z,1.09
2023-03-28T10:48:55.260Z,1.18
2023-03-28T10:49:59.562Z,1.27
2023-03-28T10:51:03.614Z,1.17
2023-03-28T10:52:07.876Z,1.12
2023-03-28T10:53:12.109Z,1.18
2023-03-28T10:54:16.301Z,1.28
2023-03-28T10:55:20.513Z,1.41
2023-03-28T10:56:24.722Z,1.44
2023-03-28T10:57:28.929Z,1.48
2023-03-28T10:58:33.163Z,1.48
2023-03-28T10:59:37.335Z,1.34
2023-03-28T11:00:41.637Z,1.33
2023-03-28T11:01:45.843Z,1.34
2023-03-28T11:02:50.145Z,1.39
2023-03-28T11:03:54.443Z,1.49
2023-03-28T11:04:58.517Z,1.36
2023-03-28T11:06:09.567Z,1.21
2023-03-28T11:07:06.989Z,1.04
2023-03-28T11:08:11.308Z,1.04
2023-03-28T11:09:15.524Z,1.04
2023-03-28T11:10:19.761Z,1.06
2023-03-28T11:11:23.906Z,0.98
2023-03-28T11:12:29.148Z,0.87
2023-03-28T11:13:32.300Z,0.77
2023-03-28T11:14:36.585Z,0.70
2023-03-28T11:15:40.874Z,0.72
2023-03-28T11:16:45.045Z,0.79
2023-03-28T11:17:49.363Z,0.94
2023-03-28T11:18:53.414Z,1.18
2023-03-28T11:19:57.709Z,1.38
2023-03-28T11:21:02.289Z,1.51
2023-03-28T11:22:06.323Z,1.53
2023-03-28T11:23:10.561Z,1.49
2023-03-28T11:24:14.788Z,1.41
2023-03-28T11:25:19.092Z,1.35
2023-03-28T11:26:23.299Z,1.23
2023-03-28T11:27:27.516Z,1.21
2023-03-28T11:28:31.669Z,1.20
2023-03-28T11:29:43.261Z,1.25
2023-03-28T11:30:40.337Z,1.44
2023-03-28T11:31:44.580Z,1.63
2023-03-28T11:32:48.861Z,1.66
2023-03-28T11:33:53.146Z,1.69
2023-03-28T11:34:57.231Z,1.76
2023-03-28T11:36:01.622Z,1.80
2023-03-28T11:37:05.781Z,1.89
2023-03-28T11:38:10.074Z,1.82
2023-03-28T11:39:14.272Z,1.78
2023-03-28T11:40:18.493Z,1.72
2023-03-28T11:41:22.659Z,1.73
2023-03-28T11:42:26.881Z,1.67
2023-03-28T11:43:31.187Z,1.59
2023-03-28T11:44:35.359Z,1.58
2023-03-28T11:45:51.234Z,1.39
2023-03-28T11:46:43.895Z,1.39
2023-03-28T11:47:48.252Z,1.39
2023-03-28T11:48:52.345Z,1.21
2023-03-28T11:49:56.640Z,1.27
2023-03-28T11:51:00.957Z,1.42
2023-03-28T11:52:05.100Z,1.40
2023-03-28T11:53:09.330Z,1.50
2023-03-28T11:54:13.598Z,1.72
2023-03-28T11:55:17.811Z,1.86
2023-03-28T11:56:22.128Z,1.71
2023-03-28T11:57:26.485Z,1.60
2023-03-28T11:58:30.624Z,1.54
2023-03-28T11:59:34.866Z,1.65
2023-03-28T12:01:43.319Z,1.75
2023-03-28T12:02:47.722Z,1.79
2023-03-28T12:03:52.069Z,1.69
2023-03-28T12:04:56.011Z,1.60
2023-03-28T12:06:04.940Z,1.50
2023-03-28T12:07:04.550Z,1.44
2023-03-28T12:08:08.779Z,1.48
2023-03-28T12:09:12.935Z,1.55
2023-03-28T12:10:17.240Z,1.80
2023-03-28T12:11:21.411Z,2.09
2023-03-28T12:12:25.729Z,2.34
2023-03-28T12:13:29.885Z,2.56
2023-03-28T12:14:34.099Z,2.86
2023-03-28T12:15:38.404Z,2.99
2023-03-28T12:16:42.697Z,3.00
2023-03-28T12:19:14.077Z,3.14
2023-03-28T12:20:20.076Z,2.98
2023-03-28T12:21:22.460Z,2.99
2023-03-28T12:22:26.623Z,3.05
2023-03-28T12:23:30.912Z,3.06
2023-03-28T12:24:35.208Z,2.86
2023-03-28T12:25:39.240Z,2.87
2023-03-28T12:26:43.497Z,2.79
2023-03-28T12:27:47.716Z,2.80
2023-03-28T12:28:51.966Z,2.96
2023-03-28T12:29:56.168Z,2.90
2023-03-28T12:31:00.749Z,2.70
2023-03-28T12:32:04.793Z,2.52
2023-03-28T12:33:09.144Z,2.44
2023-03-28T12:34:13.269Z,2.40
2023-03-28T12:35:17.517Z,2.29
2023-03-28T12:36:21.786Z,2.06
2023-03-28T12:37:25.905Z,1.53
2023-03-28T12:38:30.238Z,1.61
2023-03-28T12:39:34.483Z,1.56
2023-03-28T12:40:38.795Z,1.52
2023-03-28T12:41:43.054Z,1.61
2023-03-28T12:42:47.294Z,1.62
2023-03-28T12:43:51.587Z,1.50
2023-03-28T12:44:55.774Z,1.51
2023-03-28T12:46:00.154Z,1.60
2023-03-28T12:47:04.400Z,1.71
2023-03-28T12:48:08.669Z,1.90
2023-03-28T12:49:12.993Z,2.30
2023-03-28T12:50:17.221Z,2.71
2023-03-28T12:51:21.545Z,2.54
2023-03-28T12:52:25.748Z,2.54
2023-03-28T12:53:29.958Z,2.48
2023-03-28T12:54:34.204Z,2.35
2023-03-28T12:55:38.403Z,2.41
2023-03-28T12:56:42.699Z,2.47
2023-03-28T12:57:47.123Z,2.82
2023-03-28T12:58:51.241Z,3.18
2023-03-28T12:59:55.539Z,2.92
2023-03-28T13:01:00.119Z,2.80
2023-03-28T13:02:04.066Z,2.66
2023-03-28T13:03:08.366Z,2.92
2023-03-28T13:04:12.636Z,3.07
2023-03-28T13:05:16.768Z,3.29
2023-03-28T13:06:21.052Z,3.21
2023-03-28T13:07:25.367Z,3.22
2023-03-28T13:08:43.660Z,2.89
2023-03-28T13:09:46.688Z,2.84
2023-03-28T13:10:50.936Z,3.02
2023-03-28T13:11:55.108Z,3.08
2023-03-28T13:12:59.418Z,3.25
2023-03-28T13:14:03.737Z,3.02
2023-03-28T13:15:07.924Z,2.86
2023-03-28T13:16:12.312Z,2.72
2023-03-28T13:17:16.433Z,3.13
2023-03-28T13:18:20.792Z,3.18
2023-03-28T13:19:25.075Z,3.49
2023-03-28T13:20:29.182Z,3.53
2023-03-28T13:21:33.619Z,3.36
2023-03-28T13:22:37.897Z,3.45
2023-03-28T13:23:42.216Z,3.57
2023-03-28T13:24:46.390Z,3.68
2023-03-28T13:25:50.679Z,3.92
2023-03-28T13:26:55.056Z,4.14
2023-03-28T13:27:59.323Z,3.92
2023-03-28T13:29:03.513Z,3.49
2023-03-28T13:30:07.988Z,3.06
2023-03-28T13:31:12.176Z,2.85
2023-03-28T13:32:16.341Z,3.20
2023-03-28T13:33:20.609Z,3.33
2023-03-28T13:34:24.912Z,3.54
2023-03-28T13:35:29.098Z,3.33
2023-03-28T13:36:33.376Z,3.20
2023-03-28T13:37:37.624Z,3.23
2023-03-28T13:38:41.992Z,3.01
2023-03-28T13:39:46.155Z,2.94
2023-03-28T13:40:50.412Z,2.54
2023-03-28T13:41:54.765Z,2.28
2023-03-28T13:42:58.977Z,2.21
2023-03-28T13:44:03.223Z,2.08
2023-03-28T13:45:07.424Z,2.14
2023-03-28T13:46:11.721Z,2.22
2023-03-28T13:47:16.071Z,2.21
2023-03-28T13:48:20.464Z,2.20
2023-03-28T13:49:24.553Z,2.23
2023-03-28T13:50:28.840Z,2.01
2023-03-28T13:51:33.089Z,1.80
2023-03-28T13:52:37.453Z,1.97
2023-03-28T13:53:48.031Z,2.16
2023-03-28T13:54:46.095Z,2.43
2023-03-28T13:55:50.290Z,2.59
2023-03-28T13:56:54.543Z,2.68
2023-03-28T13:57:58.908Z,2.46
2023-03-28T13:59:03.134Z,2.41
2023-03-28T14:00:07.463Z,2.31
2023-03-28T14:01:11.815Z,2.08
2023-03-28T14:02:16.043Z,1.98
2023-03-28T14:03:20.298Z,2.05
2023-03-28T14:04:24.485Z,1.77
2023-03-28T14:05:28.717Z,1.69
2023-03-28T14:06:32.985Z,1.63
2023-03-28T14:07:37.342Z,1.75
2023-03-28T14:08:41.648Z,1.82
2023-03-28T14:09:45.944Z,1.64
2023-03-28T14:10:50.271Z,1.34
2023-03-28T14:11:54.502Z,1.49
2023-03-28T14:12:58.689Z,1.58
2023-03-28T14:14:03.003Z,1.92
2023-03-28T14:15:07.230Z,1.89
2023-03-28T14:16:11.529Z,1.86
2023-03-28T14:17:15.802Z,1.77